Terminal Aerodrome Forecast
Issued by NWS Lake Charles, LA

Home | Current Version | Previous Version | Text Only | Print | Product List | Glossary On
Versions: 1 2 3 4 5 6 7 8 9 10 11 12 13 14 15 16 17 18 19
000
FTUS44 KLCH 290900 AAA
TAFBPT
TAF AMD
KBPT 290926Z 2909/3006 09005KT P6SM SCT027 SCT120 SCT250
     FM291400 11011KT P6SM VCSH SCT027 BKN150 BKN200
      TEMPO 2917/2921 VRB15G20KT 4SM -TSRA SCT007 OVC027CB
     FM292100 13008KT 3SM -RA BR OVC007=

USA.gov is the U.S. government's official web portal to all federal, state and local government web resources and services.